Weather at Koksijde airport - EBFN


metar: EBFN 211225Z 01010KT 9000 FEW028 SCT130 17/10 Q1003 BLU

19 minuten geleden, om 12:25 UTC, de wind blies met windsnelheden van 5.1 meter per seconde(11.5 mijl per uur) vanuit Noord nabij Koksijde airport. De temperatuur was 17 °C (63 °F), en de barometerdruk was 1,003 hPa (29.62 inHg). De relatieve vochtigheid was 63.4%. er was weinig bewolking op een hoogte van 853 meter (2800 voet) en verspreide bewolking op een hoogte van 3962 meter (13000 voet). De zichtbaarheid was 9.0 kilometer (5.6 mijl).

temperature image   windir image sky image 

Last 24 hour graph Koksijde airport - EBFN